createdAt,value
2018-11-03T00:01:06.003Z,3.30
2018-11-03T00:03:35.094Z,3.27
2018-11-03T00:06:04.085Z,3.23
2018-11-03T00:08:33.086Z,3.33
2018-11-03T00:11:04.392Z,3.30
2018-11-03T00:13:33.317Z,3.13
2018-11-03T00:16:04.215Z,3.40
2018-11-03T00:18:31.219Z,3.77
2018-11-03T00:21:00.250Z,3.63
2018-11-03T00:23:31.022Z,3.47
2018-11-03T00:25:58.312Z,3.50
2018-11-03T00:28:30.054Z,3.20
2018-11-03T00:30:59.060Z,3.30
2018-11-03T00:33:27.970Z,8.00
2018-11-03T00:35:56.900Z,5.57
2018-11-03T00:38:25.853Z,3.00
2018-11-03T00:40:54.761Z,3.23
2018-11-03T00:43:23.710Z,6.67
2018-11-03T00:45:52.637Z,26.63
2018-11-03T00:48:21.525Z,4.87
2018-11-03T00:50:50.450Z,4.07
2018-11-03T00:53:19.382Z,46.37
2018-11-03T00:55:48.284Z,4.57
2018-11-03T00:58:17.201Z,4.17
2018-11-03T01:00:46.165Z,3.83
2018-11-03T01:03:15.087Z,3.90
2018-11-03T01:05:43.980Z,4.37
2018-11-03T01:08:12.899Z,4.30
2018-11-03T01:10:41.762Z,4.10
2018-11-03T01:13:10.674Z,4.93
2018-11-03T01:15:39.577Z,5.30
2018-11-03T01:18:08.500Z,4.30
2018-11-03T01:20:37.437Z,4.27
2018-11-03T01:23:06.362Z,4.10
2018-11-03T01:25:35.283Z,3.70
2018-11-03T01:28:04.313Z,3.93
2018-11-03T01:30:33.237Z,4.20
2018-11-03T01:33:02.117Z,3.80
2018-11-03T01:35:31.071Z,3.80
2018-11-03T01:37:59.992Z,4.20
2018-11-03T01:40:28.906Z,3.87
2018-11-03T01:42:57.839Z,4.03
2018-11-03T01:45:26.756Z,4.20
2018-11-03T01:47:55.704Z,5.10
2018-11-03T01:50:24.599Z,3.87
2018-11-03T01:52:53.521Z,4.03
2018-11-03T01:55:22.433Z,4.23
2018-11-03T01:57:51.308Z,3.80
2018-11-03T02:00:20.214Z,3.77
2018-11-03T02:02:49.183Z,4.30
2018-11-03T02:05:18.090Z,4.30
2018-11-03T02:07:47.050Z,4.30
2018-11-03T02:10:15.961Z,5.10
2018-11-03T02:12:44.853Z,5.00
2018-11-03T02:15:13.759Z,4.40
2018-11-03T02:17:42.736Z,4.30
2018-11-03T02:20:12.248Z,4.23
2018-11-03T02:22:41.310Z,4.20
2018-11-03T02:25:10.715Z,4.17
2018-11-03T02:27:39.623Z,5.70
2018-11-03T02:30:09.334Z,5.00
2018-11-03T02:32:38.238Z,6.17
2018-11-03T02:35:07.921Z,6.17
2018-11-03T02:37:37.181Z,4.90
2018-11-03T02:40:07.270Z,5.70
2018-11-03T02:42:36.206Z,5.17
2018-11-03T02:45:06.379Z,4.70
2018-11-03T02:47:35.431Z,4.40
2018-11-03T02:50:05.289Z,5.00
2018-11-03T02:52:34.231Z,4.33
2018-11-03T02:55:03.132Z,5.13
2018-11-03T02:57:32.051Z,4.70
2018-11-03T03:00:01.027Z,4.70
2018-11-03T03:02:29.939Z,4.97
2018-11-03T03:04:58.842Z,4.50
2018-11-03T03:07:27.744Z,4.57
2018-11-03T03:09:56.630Z,4.63
2018-11-03T03:12:25.521Z,4.87
2018-11-03T03:14:54.397Z,5.03
2018-11-03T03:17:23.352Z,4.93
2018-11-03T03:19:52.257Z,4.80
2018-11-03T03:22:21.170Z,5.03
2018-11-03T03:24:50.063Z,4.77
2018-11-03T03:27:19.031Z,4.57
2018-11-03T03:29:47.936Z,5.20
2018-11-03T03:32:16.855Z,6.70
2018-11-03T03:34:45.810Z,5.43
2018-11-03T03:37:14.627Z,5.20
2018-11-03T03:39:43.513Z,4.87
2018-11-03T03:42:12.530Z,5.90
2018-11-03T03:44:41.407Z,5.33
2018-11-03T03:47:10.277Z,6.10
2018-11-03T03:49:39.267Z,5.70
2018-11-03T03:52:08.134Z,5.57
2018-11-03T03:54:37.049Z,6.17
2018-11-03T03:57:06.249Z,6.23
2018-11-03T03:59:35.156Z,8.30
2018-11-03T04:02:04.046Z,7.53
2018-11-03T04:04:33.007Z,6.67
2018-11-03T04:07:01.868Z,6.40
2018-11-03T04:09:30.789Z,6.53
2018-11-03T04:11:59.679Z,6.07
2018-11-03T04:14:28.606Z,7.17
2018-11-03T04:16:57.476Z,6.10
2018-11-03T04:19:26.418Z,6.83
2018-11-03T04:21:55.336Z,7.50
2018-11-03T04:24:24.225Z,6.13
2018-11-03T04:26:53.116Z,5.93
2018-11-03T04:29:22.032Z,5.80
2018-11-03T04:31:50.978Z,5.50
2018-11-03T04:34:19.909Z,5.53
2018-11-03T04:36:48.833Z,5.87
2018-11-03T04:39:17.728Z,6.10
2018-11-03T04:41:46.635Z,5.67
2018-11-03T04:44:15.548Z,5.70
2018-11-03T04:46:44.462Z,6.03
2018-11-03T04:49:13.340Z,5.53
2018-11-03T04:51:42.259Z,6.20
2018-11-03T04:54:11.137Z,5.80
2018-11-03T04:56:40.053Z,6.00
2018-11-03T04:59:08.931Z,5.60
2018-11-03T05:01:37.882Z,5.87
2018-11-03T05:04:06.791Z,5.77
2018-11-03T05:06:35.692Z,5.83
2018-11-03T05:09:06.397Z,6.40
2018-11-03T05:11:35.304Z,8.18
2018-11-03T05:14:04.418Z,7.07
2018-11-03T05:16:33.413Z,6.83
2018-11-03T05:19:02.318Z,6.60
2018-11-03T05:21:31.246Z,8.30
2018-11-03T05:24:00.170Z,8.23
2018-11-03T05:26:29.100Z,8.37
2018-11-03T05:28:58.082Z,6.50
2018-11-03T05:31:26.920Z,6.83
2018-11-03T05:33:55.833Z,7.10
2018-11-03T05:36:24.736Z,6.87
2018-11-03T05:38:53.733Z,6.73
2018-11-03T05:41:22.582Z,7.07
2018-11-03T05:43:51.491Z,6.80
2018-11-03T05:46:20.424Z,6.87
2018-11-03T05:48:49.304Z,6.27
2018-11-03T05:51:18.230Z,6.87
2018-11-03T05:53:47.138Z,8.60
2018-11-03T05:56:16.046Z,6.77
2018-11-03T05:58:44.959Z,6.27
2018-11-03T06:01:13.913Z,7.20
2018-11-03T06:03:43.048Z,6.63
2018-11-03T06:06:11.948Z,6.60
2018-11-03T06:08:40.913Z,6.47
2018-11-03T06:11:09.753Z,6.40
2018-11-03T06:13:38.658Z,6.53
2018-11-03T06:16:07.596Z,7.77
2018-11-03T06:18:36.486Z,7.67
2018-11-03T06:21:05.679Z,7.43
2018-11-03T06:23:34.597Z,7.60
2018-11-03T06:26:03.450Z,7.50
2018-11-03T06:28:32.353Z,7.33
2018-11-03T06:31:01.271Z,7.73
2018-11-03T06:33:30.176Z,7.87
2018-11-03T06:35:59.195Z,8.53
2018-11-03T06:38:28.064Z,8.07
2018-11-03T06:40:56.935Z,7.70
2018-11-03T06:43:25.850Z,8.53
2018-11-03T06:45:54.770Z,8.20
2018-11-03T06:48:23.697Z,8.67
2018-11-03T06:50:52.568Z,8.43
2018-11-03T06:53:21.480Z,8.83
2018-11-03T06:55:50.436Z,7.33
2018-11-03T06:58:19.362Z,8.53
2018-11-03T07:00:48.276Z,8.97
2018-11-03T07:03:17.173Z,8.00
2018-11-03T07:05:46.079Z,9.23
2018-11-03T07:08:14.967Z,8.83
2018-11-03T07:10:43.888Z,9.53
2018-11-03T07:13:12.891Z,9.63
2018-11-03T07:15:41.692Z,9.27
2018-11-03T07:18:10.597Z,9.37
2018-11-03T07:20:39.521Z,9.37
2018-11-03T07:23:08.438Z,8.67
2018-11-03T07:25:37.405Z,9.03
2018-11-03T07:28:06.469Z,9.27
2018-11-03T07:30:35.385Z,8.43
2018-11-03T07:33:04.368Z,8.20
2018-11-03T07:35:33.377Z,8.43
2018-11-03T07:38:02.283Z,9.27
2018-11-03T07:40:31.112Z,15.17
2018-11-03T07:43:00.040Z,7.97
2018-11-03T07:45:28.935Z,10.70
2018-11-03T07:47:57.909Z,9.87
2018-11-03T07:50:26.744Z,9.07
2018-11-03T07:52:55.661Z,9.43
2018-11-03T07:55:24.579Z,22.00
2018-11-03T07:57:53.508Z,9.20
2018-11-03T08:00:22.469Z,11.37
2018-11-03T08:02:51.373Z,11.40
2018-11-03T08:05:20.370Z,9.80
2018-11-03T08:07:49.266Z,9.90
2018-11-03T08:10:18.167Z,9.33
2018-11-03T08:12:47.114Z,10.77
2018-11-03T08:15:16.119Z,11.10
2018-11-03T08:17:45.023Z,11.00
2018-11-03T08:20:13.935Z,11.50
2018-11-03T08:22:42.833Z,11.63
2018-11-03T08:25:11.773Z,10.93
2018-11-03T08:27:40.788Z,11.20
2018-11-03T08:30:11.502Z,12.73
2018-11-03T08:32:40.411Z,12.97
2018-11-03T08:35:10.279Z,11.73
2018-11-03T08:37:39.625Z,15.38
2018-11-03T08:40:10.648Z,13.60
2018-11-03T08:42:40.071Z,13.10
2018-11-03T08:45:09.783Z,13.10
2018-11-03T08:47:38.707Z,12.93
2018-11-03T08:50:09.247Z,13.23
2018-11-03T08:52:38.278Z,13.20
2018-11-03T08:55:08.411Z,13.23
2018-11-03T08:57:37.358Z,13.90
2018-11-03T09:00:08.845Z,15.67
2018-11-03T09:02:37.746Z,14.23
2018-11-03T09:05:07.020Z,17.30
2018-11-03T09:07:36.768Z,17.20
2018-11-03T09:10:07.624Z,18.10
2018-11-03T09:12:36.691Z,18.60
2018-11-03T09:15:06.926Z,19.27
2018-11-03T09:17:36.509Z,18.70
2018-11-03T09:20:06.589Z,19.47
2018-11-03T09:22:36.039Z,19.57
2018-11-03T09:25:06.114Z,19.30
2018-11-03T09:27:35.001Z,20.43
2018-11-03T09:30:04.276Z,20.03
2018-11-03T09:32:33.242Z,20.13
2018-11-03T09:35:02.269Z,20.57
2018-11-03T09:37:31.166Z,19.40
2018-11-03T09:40:00.071Z,20.30
2018-11-03T09:42:29.018Z,19.60
2018-11-03T09:44:57.984Z,19.83
2018-11-03T09:47:26.860Z,19.37
2018-11-03T09:49:55.786Z,20.30
2018-11-03T09:52:24.686Z,20.43
2018-11-03T09:54:53.609Z,19.70
2018-11-03T09:57:22.549Z,19.83
2018-11-03T09:59:51.556Z,21.37
2018-11-03T10:02:20.469Z,23.98
2018-11-03T10:04:49.421Z,20.80
2018-11-03T10:07:18.446Z,19.90
2018-11-03T10:09:47.405Z,22.85
2018-11-03T10:12:16.407Z,21.77
2018-11-03T10:14:45.336Z,19.90
2018-11-03T10:17:14.359Z,18.97
2018-11-03T10:19:43.423Z,19.70
2018-11-03T10:22:12.372Z,19.20
2018-11-03T10:24:41.274Z,18.50
2018-11-03T10:27:10.208Z,18.67
2018-11-03T10:29:39.162Z,18.43
2018-11-03T10:32:08.113Z,18.80
2018-11-03T10:34:37.063Z,17.67
2018-11-03T10:37:05.982Z,17.50
2018-11-03T10:39:34.957Z,17.47
2018-11-03T10:42:03.855Z,17.70
2018-11-03T10:44:32.768Z,17.50
2018-11-03T10:47:01.911Z,16.63
2018-11-03T10:49:31.237Z,16.30
2018-11-03T10:52:02.975Z,17.07
2018-11-03T10:54:33.382Z,16.13
2018-11-03T10:57:06.005Z,16.97
2018-11-03T10:59:35.354Z,16.13
2018-11-03T11:02:30.196Z,16.70
2018-11-03T11:05:20.075Z,16.40
2018-11-03T11:08:06.892Z,15.40
2018-11-03T11:10:55.976Z,15.30
2018-11-03T11:13:27.146Z,15.25
2018-11-03T11:16:01.648Z,14.30
2018-11-03T11:18:30.575Z,14.70
2018-11-03T11:20:59.804Z,15.30
2018-11-03T11:23:33.869Z,15.63
2018-11-03T11:26:05.382Z,15.60
2018-11-03T11:28:32.357Z,15.43
2018-11-03T11:31:01.858Z,14.63
2018-11-03T11:33:32.170Z,15.53
2018-11-03T11:36:03.768Z,15.80
2018-11-03T11:38:33.321Z,15.77
2018-11-03T11:41:07.727Z,14.63
2018-11-03T11:43:37.049Z,15.10
2018-11-03T11:46:06.937Z,16.60
2018-11-03T11:48:36.590Z,17.53
2018-11-03T11:51:06.564Z,17.10
2018-11-03T11:53:36.038Z,18.82
2018-11-03T11:56:05.307Z,16.47
2018-11-03T11:58:34.849Z,16.87
2018-11-03T12:01:07.020Z,17.50
2018-11-03T12:03:36.507Z,16.07
2018-11-03T12:06:08.509Z,17.20
2018-11-03T12:08:37.588Z,18.97
2018-11-03T12:11:07.134Z,17.87
2018-11-03T12:13:39.081Z,14.83
2018-11-03T12:16:11.560Z,15.30
2018-11-03T12:18:40.794Z,14.77
2018-11-03T12:21:10.109Z,16.07
2018-11-03T12:23:44.176Z,16.57
2018-11-03T12:26:14.807Z,15.47
2018-11-03T12:28:44.021Z,17.17
2018-11-03T12:31:14.002Z,18.00
2018-11-03T12:33:44.051Z,15.70
2018-11-03T12:36:16.246Z,17.10
2018-11-03T12:38:45.610Z,18.33
2018-11-03T12:41:15.112Z,16.77
2018-11-03T12:43:45.083Z,16.50
2018-11-03T12:46:14.379Z,17.20
2018-11-03T12:48:43.648Z,17.70
2018-11-03T12:51:15.318Z,18.33
2018-11-03T12:53:49.163Z,18.93
2018-11-03T12:56:19.924Z,19.43
2018-11-03T12:58:52.049Z,19.53
2018-11-03T13:01:21.417Z,18.73
2018-11-03T13:03:55.211Z,21.00
2018-11-03T13:06:25.787Z,17.63
2018-11-03T13:08:55.593Z,17.23
2018-11-03T13:11:25.789Z,16.60
2018-11-03T13:13:59.680Z,15.67
2018-11-03T13:16:29.272Z,16.23
2018-11-03T13:19:00.765Z,16.27
2018-11-03T13:21:30.106Z,15.93
2018-11-03T13:24:01.373Z,15.30
2018-11-03T13:26:31.407Z,15.80
2018-11-03T13:29:00.726Z,15.93
2018-11-03T13:31:32.272Z,15.43
2018-11-03T13:34:03.459Z,15.93
2018-11-03T13:36:33.142Z,16.20
2018-11-03T13:39:06.617Z,16.03
2018-11-03T13:41:36.635Z,15.53
2018-11-03T13:44:10.959Z,16.37
2018-11-03T13:46:45.002Z,15.97
2018-11-03T13:49:12.888Z,15.87
2018-11-03T13:51:42.288Z,14.73
2018-11-03T13:54:14.407Z,14.40
2018-11-03T13:56:46.742Z,14.53
2018-11-03T13:59:19.082Z,14.27
2018-11-03T14:01:50.182Z,13.77
2018-11-03T14:04:19.361Z,13.53
2018-11-03T14:06:48.927Z,13.83
2018-11-03T14:09:18.100Z,13.20
2018-11-03T14:11:47.584Z,13.30
2018-11-03T14:14:17.356Z,11.33
2018-11-03T14:16:46.775Z,11.40
2018-11-03T14:19:15.915Z,10.57
2018-11-03T14:21:45.278Z,11.10
2018-11-03T14:24:17.436Z,10.57
2018-11-03T14:26:46.665Z,10.47
2018-11-03T14:29:16.345Z,9.80
2018-11-03T14:31:45.771Z,10.03
2018-11-03T14:34:15.485Z,10.67
2018-11-03T14:36:44.637Z,11.60
2018-11-03T14:39:16.907Z,12.57
2018-11-03T14:41:49.539Z,12.33
2018-11-03T14:44:24.915Z,12.70
2018-11-03T14:46:53.837Z,12.23
2018-11-03T14:49:25.809Z,12.90
2018-11-03T14:51:54.828Z,12.47
2018-11-03T14:54:26.429Z,12.27
2018-11-03T14:56:53.528Z,12.13
2018-11-03T14:59:25.866Z,11.83
2018-11-03T15:02:00.632Z,12.57
2018-11-03T15:04:33.003Z,11.93
2018-11-03T15:07:04.791Z,12.47
2018-11-03T15:09:38.548Z,12.57
2018-11-03T15:12:10.508Z,12.70
2018-11-03T15:14:41.304Z,12.33
2018-11-03T15:17:10.458Z,12.53
2018-11-03T15:19:41.878Z,12.40
2018-11-03T15:22:11.140Z,13.23
2018-11-03T15:24:45.451Z,12.77
2018-11-03T15:27:13.334Z,13.50
2018-11-03T15:29:42.805Z,14.07
2018-11-03T15:32:14.921Z,13.90
2018-11-03T15:34:48.802Z,14.77
2018-11-03T15:37:16.647Z,15.00
2018-11-03T15:39:45.909Z,13.87
2018-11-03T15:42:15.363Z,13.67
2018-11-03T15:44:44.563Z,14.87
2018-11-03T15:47:19.449Z,14.87
2018-11-03T15:49:49.073Z,14.07
2018-11-03T15:52:18.644Z,15.43
2018-11-03T15:54:49.002Z,14.43
2018-11-03T15:57:18.414Z,15.20
2018-11-03T15:59:47.495Z,16.37
2018-11-03T16:02:16.674Z,15.70
2018-11-03T16:04:47.033Z,15.43
2018-11-03T16:07:16.357Z,15.67
2018-11-03T16:09:45.918Z,15.70
2018-11-03T16:12:15.671Z,15.70
2018-11-03T16:14:46.685Z,15.97
2018-11-03T16:17:15.802Z,16.43
2018-11-03T16:19:46.248Z,15.90
2018-11-03T16:22:17.007Z,16.50
2018-11-03T16:24:47.269Z,16.70
2018-11-03T16:27:16.687Z,17.57
2018-11-03T16:29:46.443Z,17.63
2018-11-03T16:32:15.854Z,18.43
2018-11-03T16:34:46.391Z,17.23
2018-11-03T16:37:17.061Z,18.07
2018-11-03T16:39:48.798Z,18.30
2018-11-03T16:42:18.740Z,18.50
2018-11-03T16:44:47.785Z,17.43
2018-11-03T16:47:16.910Z,18.07
2018-11-03T16:49:46.272Z,18.50
2018-11-03T16:52:20.779Z,19.27
2018-11-03T16:54:49.860Z,17.80
2018-11-03T16:57:19.108Z,18.10
2018-11-03T16:59:51.029Z,18.10
2018-11-03T17:02:23.303Z,17.00
2018-11-03T17:04:52.443Z,17.63
2018-11-03T17:07:21.557Z,20.37
2018-11-03T17:09:50.755Z,17.90
2018-11-03T17:12:22.531Z,20.53
2018-11-03T17:14:51.708Z,20.53
2018-11-03T17:17:20.893Z,17.77
2018-11-03T17:19:53.890Z,17.43
2018-11-03T17:22:23.141Z,17.77
2018-11-03T17:24:52.439Z,16.40
2018-11-03T17:27:23.855Z,17.93
2018-11-03T17:29:53.006Z,16.67
2018-11-03T17:32:22.446Z,16.47
2018-11-03T17:34:54.896Z,16.47
2018-11-03T17:37:24.228Z,16.27
2018-11-03T17:39:53.585Z,16.40
2018-11-03T17:42:22.719Z,17.23
2018-11-03T17:44:54.807Z,16.40
2018-11-03T17:47:24.533Z,17.50
2018-11-03T17:49:55.830Z,17.53
2018-11-03T17:52:28.254Z,16.13
2018-11-03T17:54:57.342Z,16.07
2018-11-03T17:57:28.810Z,17.70
2018-11-03T18:00:01.310Z,17.13
2018-11-03T18:02:30.688Z,16.03
2018-11-03T18:04:59.885Z,16.20
2018-11-03T18:07:29.107Z,17.33
2018-11-03T18:10:00.047Z,15.10
2018-11-03T18:12:28.116Z,17.33
2018-11-03T18:14:57.405Z,16.43
2018-11-03T18:17:26.687Z,17.07
2018-11-03T18:19:56.058Z,15.47
2018-11-03T18:22:28.084Z,16.33
2018-11-03T18:25:00.872Z,15.00
2018-11-03T18:27:30.065Z,15.37
2018-11-03T18:29:59.214Z,15.17
2018-11-03T18:32:28.492Z,16.20
2018-11-03T18:35:02.994Z,17.53
2018-11-03T18:37:33.508Z,16.37
2018-11-03T18:40:05.683Z,16.47
2018-11-03T18:42:37.689Z,16.20
2018-11-03T18:45:08.982Z,15.77
2018-11-03T18:47:41.578Z,15.90
2018-11-03T18:50:15.262Z,17.30
2018-11-03T18:52:46.759Z,17.23
2018-11-03T18:55:16.057Z,17.23
2018-11-03T18:57:48.638Z,17.17
2018-11-03T19:00:20.342Z,17.47
2018-11-03T19:02:51.469Z,21.25
2018-11-03T19:05:24.591Z,18.63
2018-11-03T19:07:56.297Z,17.90
2018-11-03T19:10:25.675Z,18.30
2018-11-03T19:12:55.320Z,17.30
2018-11-03T19:15:26.409Z,17.63
2018-11-03T19:17:58.635Z,18.30
2018-11-03T19:20:28.085Z,18.93
2018-11-03T19:23:00.107Z,25.40
2018-11-03T19:25:26.812Z,21.97
2018-11-03T19:27:56.080Z,21.83
2018-11-03T19:30:25.491Z,22.30
2018-11-03T19:32:57.060Z,22.27
2018-11-03T19:35:26.382Z,21.40
2018-11-03T19:37:55.678Z,21.90
2018-11-03T19:40:25.166Z,19.80
2018-11-03T19:42:59.711Z,19.10
2018-11-03T19:45:28.983Z,20.33
2018-11-03T19:48:00.763Z,21.30
2018-11-03T19:50:32.014Z,21.50
2018-11-03T19:53:01.243Z,24.40
2018-11-03T19:55:32.880Z,22.70
2018-11-03T19:58:05.076Z,21.90
2018-11-03T20:00:38.937Z,27.25
2018-11-03T20:03:06.399Z,22.73
2018-11-03T20:05:35.587Z,21.67
2018-11-03T20:08:06.484Z,22.63
2018-11-03T20:10:38.407Z,22.83
2018-11-03T20:13:07.686Z,24.03
2018-11-03T20:15:36.966Z,27.73
2018-11-03T20:18:08.712Z,41.77
2018-11-03T20:20:38.069Z,36.07
2018-11-03T20:23:07.650Z,32.17
2018-11-03T20:25:38.599Z,27.70
2018-11-03T20:28:10.904Z,26.73
2018-11-03T20:30:40.297Z,21.73
2018-11-03T20:33:09.781Z,21.30
2018-11-03T20:35:39.013Z,22.97
2018-11-03T20:38:10.730Z,23.63
2018-11-03T20:40:39.786Z,23.50
2018-11-03T20:43:08.848Z,27.30
2018-11-03T20:45:38.077Z,23.47
2018-11-03T20:48:07.251Z,23.13
2018-11-03T20:50:36.556Z,26.65
2018-11-03T20:53:05.803Z,21.63
2018-11-03T20:55:35.003Z,24.10
2018-11-03T20:58:04.400Z,21.67
2018-11-03T21:00:35.602Z,21.90
2018-11-03T21:03:05.057Z,22.47
2018-11-03T21:05:39.436Z,22.63
2018-11-03T21:08:08.754Z,22.83
2018-11-03T21:10:37.874Z,22.37
2018-11-03T21:13:09.510Z,23.97
2018-11-03T21:15:39.338Z,24.07
2018-11-03T21:18:08.475Z,22.93
2018-11-03T21:20:38.183Z,21.93
2018-11-03T21:23:07.522Z,22.83
2018-11-03T21:25:37.245Z,22.80
2018-11-03T21:28:06.781Z,23.57
2018-11-03T21:30:38.218Z,23.90
2018-11-03T21:33:07.362Z,22.33
2018-11-03T21:35:36.014Z,22.50
2018-11-03T21:38:04.984Z,24.53
2018-11-03T21:40:33.884Z,25.80
2018-11-03T21:43:02.775Z,23.07
2018-11-03T21:45:31.656Z,23.40
2018-11-03T21:48:00.622Z,22.53
2018-11-03T21:50:29.535Z,22.80
2018-11-03T21:52:58.520Z,23.70
2018-11-03T21:55:27.360Z,28.05
2018-11-03T21:57:57.599Z,24.90
2018-11-03T22:00:29.366Z,23.00
2018-11-03T22:02:58.304Z,23.83
2018-11-03T22:05:27.287Z,22.87
2018-11-03T22:07:56.449Z,23.90
2018-11-03T22:10:25.798Z,28.63
2018-11-03T22:12:55.241Z,35.57
2018-11-03T22:15:24.146Z,113.83
2018-11-03T22:17:53.074Z,24.60
2018-11-03T22:20:21.979Z,25.80
2018-11-03T22:22:51.779Z,30.77
2018-11-03T22:25:20.644Z,24.97
2018-11-03T22:27:49.606Z,25.20
2018-11-03T22:30:18.529Z,26.30
2018-11-03T22:32:47.393Z,27.67
2018-11-03T22:35:16.310Z,26.40
2018-11-03T22:37:46.375Z,26.13
2018-11-03T22:40:15.309Z,25.27
2018-11-03T22:42:44.255Z,25.80
2018-11-03T22:45:13.257Z,23.23
2018-11-03T22:47:42.173Z,23.30
2018-11-03T22:50:11.097Z,25.47
2018-11-03T22:52:40.022Z,24.43
2018-11-03T22:55:10.110Z,31.57
2018-11-03T22:57:39.827Z,31.60
2018-11-03T23:00:11.385Z,25.07
2018-11-03T23:02:40.740Z,24.67
2018-11-03T23:05:10.886Z,23.00
2018-11-03T23:07:40.041Z,24.37
2018-11-03T23:10:09.044Z,24.50
2018-11-03T23:12:38.031Z,23.77
2018-11-03T23:15:07.769Z,23.03
2018-11-03T23:17:36.724Z,34.33
2018-11-03T23:20:08.828Z,47.17
2018-11-03T23:22:37.768Z,31.97
2018-11-03T23:25:06.917Z,25.47
2018-11-03T23:27:35.854Z,25.23
2018-11-03T23:30:06.967Z,24.27
2018-11-03T23:32:35.690Z,23.67
2018-11-03T23:35:05.119Z,28.03
2018-11-03T23:37:34.077Z,24.27
2018-11-03T23:40:03.041Z,25.33
2018-11-03T23:42:31.963Z,23.53
2018-11-03T23:45:01.057Z,30.00
2018-11-03T23:47:29.929Z,22.53
2018-11-03T23:49:58.920Z,24.60
2018-11-03T23:52:35.074Z,29.47
2018-11-03T23:55:05.589Z,24.90
2018-11-03T23:57:34.541Z,22.90
